createdAt,value
2023-05-02T00:02:26.621Z,13.70
2023-05-02T00:04:53.885Z,13.50
2023-05-02T00:07:21.507Z,13.30
2023-05-02T00:09:48.707Z,13.40
2023-05-02T00:12:15.877Z,13.40
2023-05-02T00:14:43.041Z,13.40
2023-05-02T00:17:17.418Z,13.30
2023-05-02T00:19:45.012Z,13.30
2023-05-02T00:22:12.226Z,13.10
2023-05-02T00:24:39.575Z,12.90
2023-05-02T00:27:07.092Z,13.00
2023-05-02T00:29:34.412Z,13.10
2023-05-02T00:32:01.671Z,13.00
2023-05-02T00:34:32.051Z,13.00
2023-05-02T00:36:59.533Z,12.80
2023-05-02T00:39:26.770Z,12.80
2023-05-02T00:42:00.338Z,12.90
2023-05-02T00:44:28.084Z,12.90
2023-05-02T00:46:56.120Z,13.00
2023-05-02T00:49:23.789Z,13.00
2023-05-02T00:51:51.024Z,12.80
2023-05-02T00:54:18.236Z,13.00
2023-05-02T00:56:45.812Z,13.00
2023-05-02T00:59:13.212Z,13.10
2023-05-02T01:02:07.915Z,13.10
2023-05-02T01:04:58.483Z,13.20
2023-05-02T01:07:40.405Z,13.10
2023-05-02T01:10:33.978Z,13.10
2023-05-02T01:13:07.962Z,13.00
2023-05-02T01:15:37.623Z,13.00
2023-05-02T01:18:06.536Z,13.10
2023-05-02T01:20:36.994Z,13.20
2023-05-02T01:23:17.531Z,13.30
2023-05-02T01:26:03.562Z,13.60
2023-05-02T01:29:06.422Z,13.70
2023-05-02T01:31:49.672Z,13.60
2023-05-02T01:34:19.181Z,13.50
2023-05-02T01:36:48.483Z,13.50
2023-05-02T01:39:22.791Z,13.30
2023-05-02T01:41:56.124Z,13.40
2023-05-02T01:44:24.378Z,13.40
2023-05-02T01:46:53.860Z,13.50
2023-05-02T01:49:21.599Z,13.60
2023-05-02T01:51:50.254Z,13.50
2023-05-02T01:54:18.425Z,13.50
2023-05-02T01:56:46.512Z,13.40
2023-05-02T01:59:18.884Z,13.50
2023-05-02T02:01:46.796Z,13.60
2023-05-02T02:04:16.167Z,13.80
2023-05-02T02:06:48.649Z,13.90
2023-05-02T02:09:16.020Z,13.90
2023-05-02T02:12:06.766Z,13.60
2023-05-02T02:14:38.745Z,13.60
2023-05-02T02:17:58.538Z,13.70
2023-05-02T02:20:27.018Z,13.90
2023-05-02T02:22:54.314Z,13.90
2023-05-02T02:25:21.740Z,13.90
2023-05-02T02:27:49.517Z,13.90
2023-05-02T02:30:16.782Z,14.00
2023-05-02T02:32:43.990Z,14.10
2023-05-02T02:35:11.538Z,13.90
2023-05-02T02:37:46.318Z,13.90
2023-05-02T02:40:31.961Z,13.90
2023-05-02T02:43:27.838Z,14.00
2023-05-02T02:46:41.736Z,14.10
2023-05-02T02:49:42.900Z,14.00
2023-05-02T02:52:58.732Z,14.00
2023-05-02T02:55:36.015Z,14.00
2023-05-02T02:58:14.419Z,14.20
2023-05-02T03:00:41.812Z,14.20
2023-05-02T03:03:09.452Z,14.20
2023-05-02T03:05:36.763Z,14.20
2023-05-02T03:08:04.154Z,14.10
2023-05-02T03:10:31.351Z,13.70
2023-05-02T03:12:58.513Z,13.60
2023-05-02T03:15:48.442Z,13.20
2023-05-02T03:18:16.403Z,13.20
2023-05-02T03:20:43.640Z,13.30
2023-05-02T03:23:10.983Z,13.40
2023-05-02T03:25:38.806Z,13.40
2023-05-02T03:28:06.144Z,13.30
2023-05-02T03:30:33.327Z,13.20
2023-05-02T03:33:01.683Z,13.50
2023-05-02T03:35:28.974Z,13.40
2023-05-02T03:37:56.110Z,13.50
2023-05-02T03:40:23.402Z,13.50
2023-05-02T03:42:50.601Z,13.40
2023-05-02T03:45:17.797Z,13.40
2023-05-02T03:47:45.065Z,13.40
2023-05-02T03:50:12.233Z,13.60
2023-05-02T03:52:39.396Z,13.70
2023-05-02T03:55:07.834Z,13.70
2023-05-02T03:57:35.023Z,13.80
2023-05-02T04:00:02.431Z,14.00
2023-05-02T04:02:30.755Z,13.70
2023-05-02T04:04:58.058Z,13.70
2023-05-02T04:07:25.898Z,13.80
2023-05-02T04:09:53.102Z,13.80
2023-05-02T04:12:21.191Z,13.80
2023-05-02T04:14:48.378Z,13.80
2023-05-02T04:17:16.134Z,14.00
2023-05-02T04:19:43.713Z,13.90
2023-05-02T04:22:10.937Z,14.10
2023-05-02T04:24:38.105Z,14.10
2023-05-02T04:27:05.415Z,14.10
2023-05-02T04:29:32.612Z,14.40
2023-05-02T04:31:59.832Z,14.30
2023-05-02T04:34:28.351Z,14.40
2023-05-02T04:36:55.500Z,14.30
2023-05-02T04:39:22.687Z,14.30
2023-05-02T04:41:50.241Z,14.40
2023-05-02T04:44:17.643Z,14.30
2023-05-02T04:46:45.055Z,14.30
2023-05-02T04:49:12.542Z,14.30
2023-05-02T04:51:39.714Z,14.30
2023-05-02T04:54:06.963Z,14.20
2023-05-02T04:56:34.164Z,14.30
2023-05-02T04:59:01.340Z,14.30
2023-05-02T05:01:28.504Z,14.00
2023-05-02T05:03:56.450Z,14.10
2023-05-02T05:06:24.341Z,14.10
2023-05-02T05:08:51.745Z,13.90
2023-05-02T05:11:18.951Z,14.00
2023-05-02T05:13:46.261Z,14.10
2023-05-02T05:16:13.521Z,14.10
2023-05-02T05:18:40.986Z,14.00
2023-05-02T05:21:08.912Z,13.90
2023-05-02T05:23:37.150Z,13.70
2023-05-02T05:26:17.285Z,13.70
2023-05-02T05:28:44.957Z,14.00
2023-05-02T05:31:16.056Z,13.60
2023-05-02T05:33:44.325Z,13.40
2023-05-02T05:36:14.900Z,13.50
2023-05-02T05:38:42.629Z,13.40
2023-05-02T05:41:11.041Z,13.50
2023-05-02T05:43:38.451Z,13.70
2023-05-02T05:46:05.823Z,14.00
2023-05-02T05:48:33.179Z,14.20
2023-05-02T05:51:05.442Z,13.90
2023-05-02T05:53:32.828Z,14.10
2023-05-02T05:56:00.101Z,14.40
2023-05-02T05:58:27.320Z,14.70
2023-05-02T06:00:54.907Z,14.40
2023-05-02T06:03:22.281Z,14.70
2023-05-02T06:05:49.527Z,14.40
2023-05-02T06:08:16.694Z,14.80
2023-05-02T06:10:43.885Z,15.00
2023-05-02T06:13:11.185Z,14.70
2023-05-02T06:15:38.401Z,14.50
2023-05-02T06:18:05.677Z,14.50
2023-05-02T06:20:32.896Z,15.00
2023-05-02T06:23:00.069Z,14.60
2023-05-02T06:25:27.294Z,14.30
2023-05-02T06:27:54.448Z,14.50
2023-05-02T06:30:21.630Z,14.20
2023-05-02T06:32:48.831Z,14.50
2023-05-02T06:35:16.155Z,14.70
2023-05-02T06:37:43.579Z,14.80
2023-05-02T06:40:11.220Z,15.20
2023-05-02T06:42:38.460Z,15.70
2023-05-02T06:45:06.285Z,15.70
2023-05-02T06:47:33.573Z,15.70
2023-05-02T06:50:01.078Z,15.50
2023-05-02T06:52:28.637Z,15.90
2023-05-02T06:54:55.889Z,15.50
2023-05-02T06:57:23.091Z,15.50
2023-05-02T06:59:50.259Z,16.20
2023-05-02T07:02:17.436Z,15.80
2023-05-02T07:04:44.765Z,15.90
2023-05-02T07:07:12.035Z,16.00
2023-05-02T07:09:39.272Z,16.10
2023-05-02T07:12:07.019Z,16.50
2023-05-02T07:14:34.395Z,16.10
2023-05-02T07:17:01.697Z,16.60
2023-05-02T07:19:29.021Z,16.90
2023-05-02T07:21:56.208Z,16.50
2023-05-02T07:24:23.418Z,16.50
2023-05-02T07:26:50.750Z,16.70
2023-05-02T07:29:17.926Z,17.00
2023-05-02T07:31:45.170Z,16.80
2023-05-02T07:34:12.430Z,17.20
2023-05-02T07:36:39.968Z,17.20
2023-05-02T07:39:07.222Z,17.70
2023-05-02T07:41:34.488Z,17.80
2023-05-02T07:44:01.808Z,19.00
2023-05-02T07:46:29.030Z,18.00
2023-05-02T07:48:56.372Z,17.70
2023-05-02T07:51:23.557Z,17.90
2023-05-02T07:53:55.709Z,17.50
2023-05-02T07:56:22.877Z,17.10
2023-05-02T07:58:51.565Z,17.00
2023-05-02T08:01:19.186Z,17.40
2023-05-02T08:03:47.061Z,16.90
2023-05-02T08:06:14.528Z,16.90
2023-05-02T08:08:41.829Z,16.60
2023-05-02T08:11:09.031Z,16.50
2023-05-02T08:13:36.199Z,16.50
2023-05-02T08:16:03.466Z,16.50
2023-05-02T08:18:30.699Z,17.00
2023-05-02T08:21:01.066Z,16.60
2023-05-02T08:23:28.267Z,16.50
2023-05-02T08:25:55.625Z,16.80
2023-05-02T08:28:22.811Z,16.60
2023-05-02T08:30:50.183Z,17.20
2023-05-02T08:33:17.502Z,17.20
2023-05-02T08:35:44.824Z,17.60
2023-05-02T08:38:12.013Z,18.60
2023-05-02T08:40:42.652Z,19.20
2023-05-02T08:43:12.618Z,18.60
2023-05-02T08:45:44.477Z,19.10
2023-05-02T08:48:13.663Z,19.20
2023-05-02T08:50:43.464Z,19.40
2023-05-02T08:53:11.773Z,19.10
2023-05-02T08:55:40.725Z,18.50
2023-05-02T08:58:09.131Z,18.70
2023-05-02T09:00:42.835Z,18.70
2023-05-02T09:03:13.040Z,18.50
2023-05-02T09:05:44.406Z,19.70
2023-05-02T09:08:12.124Z,20.20
2023-05-02T09:10:40.786Z,20.20
2023-05-02T09:13:36.023Z,20.30
2023-05-02T09:16:14.083Z,19.20
2023-05-02T09:18:43.429Z,19.70
2023-05-02T09:21:16.267Z,20.00
2023-05-02T09:23:46.392Z,20.00
2023-05-02T09:26:21.860Z,19.90
2023-05-02T09:28:53.705Z,19.10
2023-05-02T09:31:49.716Z,19.80
2023-05-02T09:34:18.441Z,19.50
2023-05-02T09:36:48.338Z,20.20
2023-05-02T09:39:30.123Z,19.90
2023-05-02T09:42:00.391Z,19.80
2023-05-02T09:44:45.420Z,19.50
2023-05-02T09:47:32.046Z,20.20
2023-05-02T09:50:06.511Z,20.10
2023-05-02T09:52:40.349Z,20.00
2023-05-02T09:55:29.570Z,19.90
2023-05-02T09:58:02.545Z,19.50
2023-05-02T10:00:47.992Z,19.10
2023-05-02T10:03:17.841Z,19.20
2023-05-02T10:05:46.331Z,19.30
2023-05-02T10:08:14.498Z,19.60
2023-05-02T10:10:45.077Z,19.70
2023-05-02T10:13:14.087Z,19.30
2023-05-02T10:15:44.935Z,20.10
2023-05-02T10:18:15.735Z,19.40
2023-05-02T10:20:54.495Z,19.10
2023-05-02T10:23:22.312Z,19.00
2023-05-02T10:25:50.000Z,19.20
2023-05-02T10:28:17.341Z,18.80
2023-05-02T10:30:44.982Z,18.40
2023-05-02T10:33:14.639Z,18.60
2023-05-02T10:35:46.817Z,18.30
2023-05-02T10:38:21.123Z,19.00
2023-05-02T10:41:03.375Z,18.60
2023-05-02T10:43:31.416Z,18.80
2023-05-02T10:45:58.977Z,18.90
2023-05-02T10:48:27.064Z,19.10
2023-05-02T10:50:56.211Z,18.80
2023-05-02T10:53:25.098Z,18.30
2023-05-02T10:56:13.076Z,18.20
2023-05-02T10:58:41.086Z,18.70
2023-05-02T11:01:29.666Z,19.10
2023-05-02T11:04:02.178Z,18.90
2023-05-02T11:06:32.479Z,19.10
2023-05-02T11:09:18.584Z,19.10
2023-05-02T11:11:46.482Z,19.80
2023-05-02T11:14:39.861Z,19.70
2023-05-02T11:17:08.690Z,20.00
2023-05-02T11:19:38.850Z,19.90
2023-05-02T11:22:21.686Z,19.50
2023-05-02T11:24:50.164Z,19.00
2023-05-02T11:27:33.617Z,18.90
2023-05-02T11:30:09.326Z,19.20
2023-05-02T11:32:46.290Z,19.40
2023-05-02T11:35:19.968Z,18.60
2023-05-02T11:37:57.192Z,18.40
2023-05-02T11:40:25.357Z,18.20
2023-05-02T11:42:52.772Z,18.40
2023-05-02T11:45:21.021Z,18.80
2023-05-02T11:47:49.495Z,19.70
2023-05-02T11:50:17.048Z,20.50
2023-05-02T11:52:46.129Z,19.90
2023-05-02T11:55:15.099Z,19.50
2023-05-02T11:57:42.864Z,19.90
2023-05-02T12:00:13.482Z,19.80
2023-05-02T12:02:42.653Z,20.00
2023-05-02T12:05:11.729Z,20.10
2023-05-02T12:07:39.988Z,20.50
2023-05-02T12:10:08.402Z,20.20
2023-05-02T12:12:36.435Z,20.70
2023-05-02T12:15:07.867Z,20.50
2023-05-02T12:17:42.776Z,21.00
2023-05-02T12:20:11.006Z,21.20
2023-05-02T12:22:38.480Z,21.20
2023-05-02T12:25:06.493Z,20.10
2023-05-02T12:27:34.615Z,19.90
2023-05-02T12:30:02.724Z,19.30
2023-05-02T12:32:32.417Z,19.20
2023-05-02T12:35:01.934Z,19.70
2023-05-02T12:37:29.341Z,20.10
2023-05-02T12:39:57.132Z,20.80
2023-05-02T12:42:26.004Z,20.70
2023-05-02T12:44:53.478Z,21.10
2023-05-02T12:47:22.485Z,20.40
2023-05-02T12:49:50.561Z,20.70
2023-05-02T12:52:38.626Z,21.10
2023-05-02T12:55:24.356Z,21.90
2023-05-02T12:57:59.596Z,22.40
2023-05-02T13:00:26.825Z,21.70
2023-05-02T13:02:54.016Z,22.10
2023-05-02T13:05:21.386Z,22.40
2023-05-02T13:07:48.633Z,22.90
2023-05-02T13:10:18.052Z,22.40
2023-05-02T13:12:47.113Z,22.70
2023-05-02T13:15:15.300Z,22.50
2023-05-02T13:17:43.153Z,23.00
2023-05-02T13:20:11.192Z,22.80
2023-05-02T13:22:38.598Z,23.10
2023-05-02T13:25:06.965Z,21.60
2023-05-02T13:27:34.474Z,21.70
2023-05-02T13:30:04.719Z,22.30
2023-05-02T13:32:33.786Z,22.00
2023-05-02T13:35:01.050Z,22.70
2023-05-02T13:37:28.322Z,23.20
2023-05-02T13:39:55.480Z,22.50
2023-05-02T13:42:23.007Z,21.70
2023-05-02T13:44:50.460Z,20.70
2023-05-02T13:47:17.676Z,20.00
2023-05-02T13:49:44.835Z,20.40
2023-05-02T13:52:11.982Z,19.40
2023-05-02T13:54:39.254Z,19.60
2023-05-02T13:57:06.510Z,19.20
2023-05-02T13:59:33.746Z,19.30
2023-05-02T14:02:01.374Z,19.20
2023-05-02T14:04:28.583Z,19.10
2023-05-02T14:06:56.132Z,19.90
2023-05-02T14:09:23.413Z,20.60
2023-05-02T14:11:50.608Z,21.20
2023-05-02T14:14:17.774Z,21.70
2023-05-02T14:16:45.022Z,21.90
2023-05-02T14:19:12.264Z,22.10
2023-05-02T14:21:39.512Z,22.10
2023-05-02T14:24:06.997Z,21.50
2023-05-02T14:26:34.432Z,21.80
2023-05-02T14:29:01.686Z,21.30
2023-05-02T14:31:28.903Z,20.80
2023-05-02T14:33:56.099Z,20.30
2023-05-02T14:36:23.285Z,20.00
2023-05-02T14:38:50.819Z,20.10
2023-05-02T14:41:17.960Z,20.40
2023-05-02T14:43:45.380Z,20.30
2023-05-02T14:46:12.682Z,20.60
2023-05-02T14:48:39.888Z,20.80
2023-05-02T14:51:07.300Z,20.50
2023-05-02T14:53:34.502Z,20.30
2023-05-02T14:56:01.684Z,20.30
2023-05-02T14:58:28.860Z,20.50
2023-05-02T15:00:56.173Z,20.80
2023-05-02T15:03:23.764Z,20.70
2023-05-02T15:05:51.164Z,20.30
2023-05-02T15:08:18.403Z,20.50
2023-05-02T15:10:45.593Z,20.70
2023-05-02T15:13:12.850Z,20.50
2023-05-02T15:15:40.017Z,20.90
2023-05-02T15:18:07.292Z,20.20
2023-05-02T15:20:34.503Z,20.80
2023-05-02T15:23:03.443Z,21.00
2023-05-02T15:25:31.262Z,21.20
2023-05-02T15:27:58.445Z,20.90
2023-05-02T15:30:25.836Z,21.30
2023-05-02T15:32:53.138Z,21.30
2023-05-02T15:35:20.553Z,21.00
2023-05-02T15:37:47.770Z,21.40
2023-05-02T15:40:14.971Z,21.20
2023-05-02T15:42:42.230Z,21.00
2023-05-02T15:45:13.525Z,20.40
2023-05-02T15:47:42.311Z,20.20
2023-05-02T15:50:22.891Z,20.10
2023-05-02T15:52:58.480Z,20.10
2023-05-02T15:55:40.525Z,21.20
2023-05-02T15:58:15.670Z,20.50
2023-05-02T16:01:11.910Z,19.80
2023-05-02T16:04:11.787Z,19.40
2023-05-02T16:07:10.593Z,19.60
2023-05-02T16:10:07.822Z,19.20
2023-05-02T16:13:10.908Z,19.10
2023-05-02T16:15:44.703Z,18.60
2023-05-02T16:18:11.981Z,18.60
2023-05-02T16:21:01.704Z,18.50
2023-05-02T16:23:35.121Z,18.40
2023-05-02T16:26:12.961Z,18.70
2023-05-02T16:29:11.320Z,18.40
2023-05-02T16:34:54.718Z,18.40
2023-05-02T16:40:28.659Z,18.40
2023-05-02T16:43:15.133Z,18.20
2023-05-02T16:46:13.894Z,18.30
2023-05-02T16:48:41.082Z,18.10
2023-05-02T16:51:08.280Z,18.10
2023-05-02T16:53:35.816Z,18.20
2023-05-02T16:56:03.270Z,17.90
2023-05-02T16:58:30.799Z,18.10
2023-05-02T17:01:00.992Z,18.10
2023-05-02T17:03:29.029Z,17.90
2023-05-02T17:06:01.050Z,17.90
2023-05-02T17:08:28.598Z,17.50
2023-05-02T17:10:56.285Z,17.80
2023-05-02T17:13:24.008Z,17.60
2023-05-02T17:15:52.723Z,17.60
2023-05-02T17:18:20.240Z,17.70
2023-05-02T17:20:47.677Z,17.60
2023-05-02T17:23:14.907Z,17.60
2023-05-02T17:25:42.302Z,17.70
2023-05-02T17:28:09.588Z,17.30
2023-05-02T17:30:36.978Z,17.40
2023-05-02T17:33:04.422Z,17.60
2023-05-02T17:35:31.762Z,17.50
2023-05-02T17:37:58.955Z,17.50
2023-05-02T17:40:26.676Z,17.50
2023-05-02T17:42:55.371Z,17.20
2023-05-02T17:45:22.573Z,17.30
2023-05-02T17:47:49.747Z,17.20
2023-05-02T17:50:16.968Z,17.20
2023-05-02T17:52:44.155Z,16.90
2023-05-02T17:55:11.359Z,16.90
2023-05-02T17:57:38.498Z,16.90
2023-05-02T18:00:07.954Z,17.00
2023-05-02T18:02:38.273Z,17.50
2023-05-02T18:05:06.772Z,17.40
2023-05-02T18:07:33.949Z,17.40
2023-05-02T18:10:04.209Z,17.30
2023-05-02T18:12:32.303Z,17.30
2023-05-02T18:15:00.211Z,17.50
2023-05-02T18:17:28.019Z,17.60
2023-05-02T18:19:55.340Z,17.50
2023-05-02T18:22:22.557Z,18.00
2023-05-02T18:24:50.365Z,18.00
2023-05-02T18:27:18.066Z,18.00
2023-05-02T18:29:45.331Z,17.90
2023-05-02T18:32:12.781Z,17.90
2023-05-02T18:34:39.978Z,17.90
2023-05-02T18:37:07.364Z,17.80
2023-05-02T18:39:34.881Z,17.70
2023-05-02T18:42:06.165Z,17.30
2023-05-02T18:44:33.468Z,17.60
2023-05-02T18:47:01.057Z,17.20
2023-05-02T18:49:28.343Z,16.80
2023-05-02T18:51:55.547Z,17.30
2023-05-02T18:54:23.487Z,17.30
2023-05-02T18:56:50.779Z,17.30
2023-05-02T18:59:18.805Z,17.30
2023-05-02T19:01:48.252Z,17.40
2023-05-02T19:04:15.621Z,17.20
2023-05-02T19:06:42.934Z,16.70
2023-05-02T19:09:12.351Z,17.00
2023-05-02T19:11:39.868Z,17.10
2023-05-02T19:14:07.093Z,17.30
2023-05-02T19:16:36.067Z,17.30
2023-05-02T19:19:03.792Z,17.20
2023-05-02T19:21:31.445Z,17.20
2023-05-02T19:23:58.705Z,17.00
2023-05-02T19:26:25.957Z,16.60
2023-05-02T19:28:53.180Z,16.50
2023-05-02T19:31:21.167Z,16.60
2023-05-02T19:33:51.888Z,16.60
2023-05-02T19:36:20.400Z,16.50
2023-05-02T19:38:51.907Z,16.40
2023-05-02T19:41:19.530Z,16.20
2023-05-02T19:43:46.766Z,16.30
2023-05-02T19:46:17.345Z,16.40
2023-05-02T19:48:44.979Z,16.30
2023-05-02T19:51:12.460Z,16.60
2023-05-02T19:53:39.649Z,16.30
2023-05-02T19:56:07.286Z,15.70
2023-05-02T19:58:34.777Z,15.80
2023-05-02T20:01:01.988Z,16.00
2023-05-02T20:03:29.390Z,16.10
2023-05-02T20:05:58.233Z,16.00
2023-05-02T20:08:27.634Z,15.90
2023-05-02T20:10:55.987Z,15.90
2023-05-02T20:13:23.174Z,15.60
2023-05-02T20:15:51.811Z,15.40
2023-05-02T20:18:19.408Z,15.30
2023-05-02T20:20:46.850Z,15.10
2023-05-02T20:23:14.201Z,15.10
2023-05-02T20:25:42.884Z,15.00
2023-05-02T20:28:10.575Z,15.00
2023-05-02T20:30:39.750Z,15.20
2023-05-02T20:33:14.816Z,15.40
2023-05-02T20:35:43.103Z,15.50
2023-05-02T20:38:10.293Z,15.20
2023-05-02T20:40:42.513Z,15.30
2023-05-02T20:43:09.801Z,15.40
2023-05-02T20:45:38.671Z,15.50
2023-05-02T20:48:06.410Z,15.20
2023-05-02T20:50:33.805Z,14.90
2023-05-02T20:53:00.996Z,14.80
2023-05-02T20:55:28.568Z,14.90
2023-05-02T20:57:55.844Z,15.20
2023-05-02T21:00:23.088Z,15.30
2023-05-02T21:02:50.621Z,15.40
2023-05-02T21:05:17.887Z,15.30
2023-05-02T21:07:45.173Z,15.40
2023-05-02T21:10:12.481Z,15.60
2023-05-02T21:12:39.701Z,15.80
2023-05-02T21:15:07.900Z,15.90
2023-05-02T21:17:35.197Z,15.40
2023-05-02T21:20:02.978Z,15.50
2023-05-02T21:22:30.509Z,15.30
2023-05-02T21:24:57.712Z,15.30
2023-05-02T21:27:24.968Z,15.50
2023-05-02T21:29:52.254Z,15.40
2023-05-02T21:32:19.548Z,15.30
2023-05-02T21:34:46.763Z,14.80
2023-05-02T21:37:13.986Z,15.30
2023-05-02T21:39:41.160Z,15.10
2023-05-02T21:42:08.354Z,14.80
2023-05-02T21:44:35.994Z,14.90
2023-05-02T21:47:03.229Z,15.10
2023-05-02T21:49:31.249Z,14.70
2023-05-02T21:51:58.779Z,14.50
2023-05-02T21:54:26.065Z,14.40
2023-05-02T21:56:56.329Z,14.70
2023-05-02T21:59:23.524Z,14.50
2023-05-02T22:01:50.717Z,14.10
2023-05-02T22:04:20.096Z,14.50
2023-05-02T22:06:54.301Z,14.30
2023-05-02T22:09:22.354Z,14.10
2023-05-02T22:11:49.551Z,14.60
2023-05-02T22:14:33.907Z,14.20
2023-05-02T22:17:11.785Z,13.60
2023-05-02T22:19:43.746Z,13.60
2023-05-02T22:22:17.146Z,14.20
2023-05-02T22:24:50.015Z,14.00
2023-05-02T22:27:26.594Z,14.10
2023-05-02T22:30:00.043Z,14.30
2023-05-02T22:32:33.658Z,13.90
2023-05-02T22:35:10.248Z,14.00
2023-05-02T22:37:42.375Z,14.20
2023-05-02T22:40:12.588Z,14.20
2023-05-02T22:42:48.088Z,14.20
2023-05-02T22:45:17.591Z,14.20
2023-05-02T22:47:53.894Z,14.10
2023-05-02T22:50:26.351Z,14.50
2023-05-02T22:52:56.859Z,14.30
2023-05-02T22:55:24.337Z,14.50
2023-05-02T22:57:51.719Z,14.40
2023-05-02T23:00:18.863Z,14.20
2023-05-02T23:02:46.197Z,14.30
2023-05-02T23:05:14.182Z,14.30
2023-05-02T23:07:41.386Z,14.40
2023-05-02T23:10:09.427Z,14.60
2023-05-02T23:12:36.592Z,14.50
2023-05-02T23:15:03.962Z,14.10
2023-05-02T23:17:31.251Z,14.20
2023-05-02T23:19:58.781Z,13.90
2023-05-02T23:22:25.977Z,13.90
2023-05-02T23:24:53.212Z,14.20
2023-05-02T23:27:20.444Z,14.10
2023-05-02T23:29:49.016Z,13.70
2023-05-02T23:32:16.796Z,13.90
2023-05-02T23:34:44.172Z,13.60
2023-05-02T23:37:12.098Z,13.90
2023-05-02T23:39:39.573Z,13.80
2023-05-02T23:42:06.926Z,14.20
2023-05-02T23:44:34.107Z,14.10
2023-05-02T23:47:01.463Z,13.50
2023-05-02T23:49:28.732Z,14.00
2023-05-02T23:51:55.883Z,13.90
2023-05-02T23:54:23.138Z,13.60
2023-05-02T23:56:50.351Z,13.70
2023-05-02T23:59:17.511Z,13.50
